createdAt,value
2022-08-22T00:00:42.884Z,91.30
2022-08-22T00:01:41.012Z,91.30
2022-08-22T00:02:40.998Z,91.61
2022-08-22T00:02:42.776Z,77.43
2022-08-22T00:02:43.483Z,83.86
2022-08-22T00:02:47.466Z,65.94
2022-08-22T00:03:00.473Z,74.19
2022-08-22T00:03:08.441Z,90.31
2022-08-22T00:03:10.897Z,87.16
2022-08-22T00:03:40.957Z,91.71
2022-08-22T00:04:41.026Z,92.01
2022-08-22T00:05:41.215Z,92.36
2022-08-22T00:06:40.923Z,92.16
2022-08-22T00:07:40.943Z,92.26
2022-08-22T00:08:41.683Z,92.36
2022-08-22T00:09:41.016Z,92.46
2022-08-22T00:10:40.914Z,92.77
2022-08-22T00:11:40.936Z,92.87
2022-08-22T00:12:40.935Z,92.77
2022-08-22T00:13:40.827Z,92.67
2022-08-22T00:14:40.815Z,92.77
2022-08-22T00:15:42.979Z,93.18
2022-08-22T00:16:40.803Z,92.97
2022-08-22T00:17:40.999Z,92.87
2022-08-22T00:18:40.847Z,93.28
2022-08-22T00:19:41.648Z,93.07
2022-08-22T00:20:40.976Z,92.97
2022-08-22T00:21:40.984Z,92.97
2022-08-22T00:22:40.737Z,92.97
2022-08-22T00:23:40.729Z,92.67
2022-08-22T00:24:40.679Z,92.87
2022-08-22T00:25:40.687Z,92.71
2022-08-22T00:26:45.073Z,92.81
2022-08-22T00:27:44.919Z,92.71
2022-08-22T00:28:41.693Z,92.91
2022-08-22T00:29:40.667Z,92.91
2022-08-22T00:30:40.632Z,93.12
2022-08-22T00:31:40.682Z,93.12
2022-08-22T00:32:40.623Z,93.02
2022-08-22T00:33:40.640Z,93.12
2022-08-22T00:34:40.543Z,93.12
2022-08-22T00:35:44.525Z,93.43
2022-08-22T00:36:40.532Z,93.12
2022-08-22T00:37:40.504Z,93.02
2022-08-22T00:38:40.582Z,93.02
2022-08-22T00:39:40.514Z,92.96
2022-08-22T00:40:40.474Z,92.86
2022-08-22T00:41:40.475Z,92.86
2022-08-22T00:42:40.455Z,92.96
2022-08-22T00:43:40.467Z,92.96
2022-08-22T00:44:40.586Z,93.06
2022-08-22T00:45:40.423Z,93.47
2022-08-22T00:46:40.427Z,93.57
2022-08-22T00:47:40.409Z,93.67
2022-08-22T00:48:40.425Z,93.57
2022-08-22T00:49:40.520Z,93.47
2022-08-22T00:50:40.435Z,93.77
2022-08-22T00:51:40.347Z,94.59
2022-08-22T00:52:40.336Z,94.38
2022-08-22T00:53:40.327Z,94.49
2022-08-22T00:54:40.307Z,95.20
2022-08-22T00:55:41.128Z,95.10
2022-08-22T00:56:40.387Z,95.41
2022-08-22T00:57:40.261Z,95.26
2022-08-22T00:58:40.302Z,95.06
2022-08-22T00:59:40.221Z,94.95
2022-08-22T01:00:40.233Z,94.45
2022-08-22T01:01:40.262Z,94.75
2022-08-22T01:02:40.231Z,94.75
2022-08-22T01:03:40.181Z,94.65
2022-08-22T01:04:40.180Z,94.55
2022-08-22T01:05:40.156Z,94.55
2022-08-22T01:06:40.142Z,94.55
2022-08-22T01:07:40.135Z,94.45
2022-08-22T01:08:40.125Z,94.29
2022-08-22T01:09:40.076Z,94.08
2022-08-22T01:10:40.560Z,94.18
2022-08-22T01:11:40.144Z,94.18
2022-08-22T01:12:40.067Z,94.29
2022-08-22T01:13:40.127Z,94.59
2022-08-22T01:14:40.094Z,94.59
2022-08-22T01:15:40.015Z,94.53
2022-08-22T01:16:40.022Z,94.94
2022-08-22T01:17:40.121Z,95.45
2022-08-22T01:18:39.995Z,95.41
2022-08-22T01:19:39.981Z,95.20
2022-08-22T01:20:40.123Z,95.41
2022-08-22T01:21:39.936Z,95.31
2022-08-22T01:22:39.912Z,95.31
2022-08-22T01:23:40.389Z,95.31
2022-08-22T01:24:39.924Z,95.20
2022-08-22T01:25:39.883Z,95.25
2022-08-22T01:26:40.478Z,95.15
2022-08-22T01:27:39.843Z,95.15
2022-08-22T01:28:39.849Z,95.45
2022-08-22T01:29:39.856Z,95.45
2022-08-22T01:30:39.927Z,95.45
2022-08-22T01:31:39.828Z,95.45
2022-08-22T01:32:40.128Z,95.35
2022-08-22T01:33:39.768Z,95.50
2022-08-22T01:34:39.799Z,95.60
2022-08-22T01:35:39.828Z,95.80
2022-08-22T01:36:39.803Z,96.21
2022-08-22T01:37:43.530Z,96.21
2022-08-22T01:38:40.728Z,95.90
2022-08-22T01:39:39.714Z,95.80
2022-08-22T01:40:53.341Z,96.01
2022-08-22T01:41:40.810Z,95.90
2022-08-22T01:42:39.670Z,95.90
2022-08-22T01:43:59.361Z,95.90
2022-08-22T01:44:40.636Z,95.90
2022-08-22T01:45:39.712Z,95.90
2022-08-22T01:46:39.678Z,95.90
2022-08-22T01:47:39.575Z,96.01
2022-08-22T01:48:39.618Z,96.01
2022-08-22T01:49:39.809Z,96.01
2022-08-22T01:50:39.608Z,96.11
2022-08-22T01:51:39.635Z,96.31
2022-08-22T01:52:39.546Z,96.42
2022-08-22T01:53:39.506Z,96.42
2022-08-22T01:54:39.487Z,96.11
2022-08-22T01:55:39.563Z,96.01
2022-08-22T01:56:39.511Z,95.90
2022-08-22T01:57:39.487Z,95.80
2022-08-22T01:58:39.524Z,95.90
2022-08-22T01:59:42.523Z,96.01
2022-08-22T02:00:41.105Z,96.11
2022-08-22T02:01:39.534Z,96.01
2022-08-22T02:02:39.423Z,96.01
2022-08-22T02:03:39.464Z,96.11
2022-08-22T02:04:40.270Z,96.01
2022-08-22T02:05:39.343Z,95.90
2022-08-22T02:06:39.552Z,95.90
2022-08-22T02:07:39.323Z,95.85
2022-08-22T02:08:39.406Z,95.64
2022-08-22T02:09:39.305Z,95.85
2022-08-22T02:10:39.294Z,96.15
2022-08-22T02:11:39.395Z,96.36
2022-08-22T02:12:39.265Z,96.56
2022-08-22T02:13:39.517Z,96.56
2022-08-22T02:14:39.227Z,96.67
2022-08-22T02:15:39.257Z,96.62
2022-08-22T02:16:39.235Z,96.21
2022-08-22T02:17:39.235Z,96.01
2022-08-22T02:18:39.411Z,96.01
2022-08-22T02:19:39.326Z,95.95
2022-08-22T02:20:39.253Z,95.95
2022-08-22T02:21:39.201Z,95.85
2022-08-22T02:22:44.364Z,95.85
2022-08-22T02:23:40.109Z,95.85
2022-08-22T02:24:39.185Z,95.85
2022-08-22T02:25:39.126Z,96.05
2022-08-22T02:26:39.099Z,96.26
2022-08-22T02:27:39.108Z,96.46
2022-08-22T02:28:39.082Z,96.51
2022-08-22T02:29:40.052Z,96.61
2022-08-22T02:30:39.051Z,96.51
2022-08-22T02:31:39.168Z,96.41
2022-08-22T02:32:39.040Z,96.51
2022-08-22T02:33:39.012Z,96.61
2022-08-22T02:34:39.071Z,96.71
2022-08-22T02:35:38.999Z,96.81
2022-08-22T02:36:38.934Z,96.92
2022-08-22T02:37:40.183Z,96.92
2022-08-22T02:38:39.123Z,96.92
2022-08-22T02:39:40.038Z,97.12
2022-08-22T02:40:38.910Z,97.22
2022-08-22T02:41:38.879Z,97.12
2022-08-22T02:42:39.997Z,97.12
2022-08-22T02:43:38.889Z,97.02
2022-08-22T02:44:38.848Z,97.06
2022-08-22T02:45:38.843Z,97.16
2022-08-22T02:46:38.834Z,97.27
2022-08-22T02:47:38.871Z,97.37
2022-08-22T02:48:39.050Z,97.37
2022-08-22T02:49:43.874Z,97.27
2022-08-22T02:50:39.863Z,97.27
2022-08-22T02:51:38.799Z,97.27
2022-08-22T02:52:38.794Z,97.37
2022-08-22T02:53:38.844Z,97.47
2022-08-22T02:54:38.725Z,97.57
2022-08-22T02:55:39.471Z,97.57
2022-08-22T02:56:38.712Z,97.57
2022-08-22T02:57:39.661Z,97.47
2022-08-22T02:58:40.184Z,97.47
2022-08-22T02:59:38.759Z,97.47
2022-08-22T03:00:38.691Z,97.47
2022-08-22T03:01:38.615Z,97.57
2022-08-22T03:02:39.823Z,97.78
2022-08-22T03:03:38.668Z,97.88
2022-08-22T03:04:38.666Z,97.88
2022-08-22T03:05:39.536Z,97.78
2022-08-22T03:06:38.571Z,97.78
2022-08-22T03:07:38.544Z,97.78
2022-08-22T03:08:38.557Z,97.67
2022-08-22T03:09:39.668Z,97.78
2022-08-22T03:10:38.527Z,97.67
2022-08-22T03:11:38.501Z,97.62
2022-08-22T03:12:38.560Z,97.52
2022-08-22T03:13:38.508Z,97.52
2022-08-22T03:14:38.558Z,97.41
2022-08-22T03:15:39.615Z,97.31
2022-08-22T03:16:40.537Z,97.31
2022-08-22T03:17:39.407Z,97.00
2022-08-22T03:18:38.499Z,96.64
2022-08-22T03:19:38.383Z,96.54
2022-08-22T03:20:38.360Z,96.44
2022-08-22T03:21:38.370Z,96.54
2022-08-22T03:22:38.370Z,96.44
2022-08-22T03:23:38.340Z,96.44
2022-08-22T03:24:38.319Z,96.54
2022-08-22T03:25:39.132Z,96.44
2022-08-22T03:26:38.308Z,96.44
2022-08-22T03:27:38.261Z,96.69
2022-08-22T03:28:58.973Z,97.09
2022-08-22T03:29:39.434Z,97.25
2022-08-22T03:30:38.555Z,97.87
2022-08-22T03:31:38.233Z,98.18
2022-08-22T03:32:38.199Z,98.07
2022-08-22T03:33:38.285Z,98.07
2022-08-22T03:34:39.312Z,97.97
2022-08-22T03:35:39.221Z,97.87
2022-08-22T03:36:38.160Z,97.66
2022-08-22T03:37:38.153Z,97.46
2022-08-22T03:38:38.148Z,97.36
2022-08-22T03:39:38.172Z,97.36
2022-08-22T03:40:38.194Z,97.36
2022-08-22T03:41:38.117Z,97.66
2022-08-22T03:42:38.073Z,98.07
2022-08-22T03:43:38.056Z,97.97
2022-08-22T03:44:38.132Z,97.87
2022-08-22T03:45:38.037Z,97.77
2022-08-22T03:46:38.014Z,97.66
2022-08-22T03:47:38.463Z,97.66
2022-08-22T03:48:38.455Z,97.66
2022-08-22T03:49:38.035Z,97.56
2022-08-22T03:50:38.006Z,97.56
2022-08-22T03:51:37.986Z,97.56
2022-08-22T03:52:38.007Z,97.40
2022-08-22T03:53:37.947Z,97.30
2022-08-22T03:54:37.947Z,97.20
2022-08-22T03:55:38.836Z,97.30
2022-08-22T03:56:37.915Z,97.20
2022-08-22T03:57:37.887Z,97.20
2022-08-22T03:58:37.902Z,97.20
2022-08-22T03:59:42.661Z,97.30
2022-08-22T04:00:38.964Z,97.40
2022-08-22T04:01:37.839Z,97.30
2022-08-22T04:02:43.306Z,97.30
2022-08-22T04:03:38.807Z,97.30
2022-08-22T04:04:39.279Z,97.30
2022-08-22T04:05:37.772Z,97.40
2022-08-22T04:06:37.819Z,97.40
2022-08-22T04:07:37.841Z,97.40
2022-08-22T04:08:37.771Z,97.40
2022-08-22T04:09:38.719Z,97.30
2022-08-22T04:10:37.753Z,97.30
2022-08-22T04:11:37.711Z,97.40
2022-08-22T04:12:37.668Z,97.30
2022-08-22T04:13:37.739Z,97.20
2022-08-22T04:14:37.692Z,96.89
2022-08-22T04:15:37.648Z,96.89
2022-08-22T04:16:37.646Z,96.83
2022-08-22T04:17:37.623Z,96.83
2022-08-22T04:18:38.487Z,96.83
2022-08-22T04:19:37.675Z,96.83
2022-08-22T04:20:37.677Z,96.83
2022-08-22T04:21:37.582Z,96.73
2022-08-22T04:22:37.712Z,96.73
2022-08-22T04:23:37.590Z,96.73
2022-08-22T04:24:37.523Z,96.83
2022-08-22T04:25:37.594Z,96.83
2022-08-22T04:26:37.516Z,96.83
2022-08-22T04:27:37.523Z,96.83
2022-08-22T04:28:37.476Z,96.94
2022-08-22T04:29:37.494Z,96.73
2022-08-22T04:30:37.468Z,96.32
2022-08-22T04:31:37.463Z,96.32
2022-08-22T04:32:37.466Z,96.22
2022-08-22T04:33:38.254Z,96.42
2022-08-22T04:34:37.390Z,96.42
2022-08-22T04:35:37.411Z,96.42
2022-08-22T04:36:37.409Z,96.53
2022-08-22T04:37:37.394Z,96.53
2022-08-22T04:38:37.394Z,96.53
2022-08-22T04:39:37.368Z,96.63
2022-08-22T04:40:37.319Z,96.63
2022-08-22T04:41:37.295Z,96.83
2022-08-22T04:42:37.312Z,96.79
2022-08-22T04:43:37.273Z,96.69
2022-08-22T04:44:38.784Z,96.69
2022-08-22T04:45:37.262Z,96.79
2022-08-22T04:46:37.365Z,96.99
2022-08-22T04:47:37.275Z,97.09
2022-08-22T04:48:37.265Z,96.99
2022-08-22T04:49:37.379Z,97.09
2022-08-22T04:50:41.205Z,97.05
2022-08-22T04:51:38.171Z,97.05
2022-08-22T04:52:37.204Z,97.05
2022-08-22T04:53:37.148Z,97.05
2022-08-22T04:54:37.588Z,96.95
2022-08-22T04:55:37.161Z,97.05
2022-08-22T04:56:37.120Z,97.05
2022-08-22T04:57:37.112Z,96.91
2022-08-22T04:58:38.550Z,96.91
2022-08-22T04:59:37.790Z,96.91
2022-08-22T05:00:37.039Z,97.00
2022-08-22T05:01:37.407Z,97.00
2022-08-22T05:02:37.380Z,97.00
2022-08-22T05:03:39.125Z,96.96
2022-08-22T05:04:37.006Z,96.96
2022-08-22T05:05:37.014Z,96.96
2022-08-22T05:06:36.968Z,96.86
2022-08-22T05:07:37.239Z,96.66
2022-08-22T05:08:37.022Z,96.55
2022-08-22T05:09:37.472Z,96.45
2022-08-22T05:10:36.950Z,96.34
2022-08-22T05:11:36.915Z,96.20
2022-08-22T05:12:36.891Z,96.10
2022-08-22T05:13:38.004Z,96.00
2022-08-22T05:14:37.016Z,96.00
2022-08-22T05:15:36.843Z,96.00
2022-08-22T05:16:36.844Z,95.89
2022-08-22T05:17:36.873Z,95.95
2022-08-22T05:18:38.031Z,95.85
2022-08-22T05:19:36.826Z,95.75
2022-08-22T05:20:36.806Z,95.75
2022-08-22T05:21:36.808Z,95.75
2022-08-22T05:22:36.797Z,95.54
2022-08-22T05:23:36.779Z,95.39
2022-08-22T05:24:38.195Z,95.39
2022-08-22T05:25:36.776Z,95.39
2022-08-22T05:26:36.845Z,95.60
2022-08-22T05:27:36.740Z,96.11
2022-08-22T05:28:36.709Z,96.42
2022-08-22T05:29:36.840Z,96.27
2022-08-22T05:30:37.906Z,96.78
2022-08-22T05:31:36.866Z,96.98
2022-08-22T05:32:36.850Z,96.84
2022-08-22T05:33:36.635Z,97.24
2022-08-22T05:34:37.419Z,96.89
2022-08-22T05:35:37.425Z,96.59
2022-08-22T05:36:38.043Z,96.18
2022-08-22T05:37:37.538Z,96.28
2022-08-22T05:38:36.748Z,96.14
2022-08-22T05:39:36.766Z,95.93
2022-08-22T05:40:37.755Z,95.73
2022-08-22T05:41:36.878Z,95.62
2022-08-22T05:42:36.873Z,95.42
2022-08-22T05:43:37.678Z,95.62
2022-08-22T05:44:36.501Z,95.89
2022-08-22T05:45:36.882Z,96.39
2022-08-22T05:46:36.740Z,96.66
2022-08-22T05:47:36.884Z,96.76
2022-08-22T05:48:36.472Z,96.66
2022-08-22T05:49:36.451Z,96.81
2022-08-22T05:50:36.772Z,96.71
2022-08-22T05:51:36.440Z,96.56
2022-08-22T05:52:36.433Z,96.67
2022-08-22T05:53:37.233Z,96.46
2022-08-22T05:54:37.224Z,96.22
2022-08-22T05:55:37.554Z,96.11
2022-08-22T05:56:37.468Z,96.11
2022-08-22T05:57:37.360Z,95.76
2022-08-22T05:58:36.423Z,95.56
2022-08-22T05:59:37.167Z,95.46
2022-08-22T06:00:36.319Z,95.36
2022-08-22T06:01:36.315Z,95.10
2022-08-22T06:02:36.273Z,95.01
2022-08-22T06:03:36.466Z,94.90
2022-08-22T06:04:37.206Z,94.70
2022-08-22T06:05:36.241Z,94.40
2022-08-22T06:06:36.193Z,94.25
2022-08-22T06:07:36.209Z,94.15
2022-08-22T06:08:36.299Z,93.84
2022-08-22T06:09:36.183Z,93.29
2022-08-22T06:10:36.266Z,92.99
2022-08-22T06:11:36.130Z,92.99
2022-08-22T06:12:36.151Z,92.68
2022-08-22T06:13:36.106Z,92.74
2022-08-22T06:14:37.391Z,92.54
2022-08-22T06:15:37.568Z,92.13
2022-08-22T06:16:36.044Z,91.89
2022-08-22T06:17:36.056Z,91.28
2022-08-22T06:18:36.111Z,90.88
2022-08-22T06:19:37.289Z,90.57
2022-08-22T06:20:36.085Z,91.13
2022-08-22T06:21:38.540Z,91.34
2022-08-22T06:22:35.980Z,90.62
2022-08-22T06:23:36.090Z,90.83
2022-08-22T06:24:36.019Z,90.28
2022-08-22T06:25:35.921Z,89.98
2022-08-22T06:26:35.955Z,90.18
2022-08-22T06:27:37.036Z,90.24
2022-08-22T06:28:37.479Z,89.73
2022-08-22T06:29:36.978Z,89.12
2022-08-22T06:30:37.751Z,89.63
2022-08-22T06:31:42.073Z,89.48
2022-08-22T06:32:58.505Z,89.39
2022-08-22T06:33:36.844Z,88.68
2022-08-22T06:34:35.961Z,88.68
2022-08-22T06:35:35.835Z,88.53
2022-08-22T06:36:35.794Z,87.52
2022-08-22T06:37:35.979Z,88.33
2022-08-22T06:38:37.225Z,87.42
2022-08-22T06:39:36.910Z,86.67
2022-08-22T06:40:35.734Z,87.28
2022-08-22T06:41:35.744Z,86.57
2022-08-22T06:42:38.330Z,85.82
2022-08-22T06:43:35.696Z,86.02
2022-08-22T06:44:35.693Z,85.93
2022-08-22T06:45:35.925Z,85.52
2022-08-22T06:46:36.416Z,85.78
2022-08-22T06:47:39.461Z,85.78
2022-08-22T06:48:35.915Z,85.58
2022-08-22T06:49:37.288Z,84.87
2022-08-22T06:50:35.642Z,84.43
2022-08-22T06:51:35.696Z,83.12
2022-08-22T06:52:35.735Z,82.71
2022-08-22T06:53:35.837Z,82.71
2022-08-22T06:54:35.583Z,83.22
2022-08-22T06:55:36.406Z,82.78
2022-08-22T06:56:35.544Z,83.38
2022-08-22T06:57:35.543Z,82.67
2022-08-22T06:58:36.528Z,82.07
2022-08-22T06:59:36.529Z,81.16
2022-08-22T07:00:35.526Z,80.72
2022-08-22T07:01:45.161Z,80.62
2022-08-22T07:02:35.453Z,80.92
2022-08-22T07:03:35.597Z,81.73
2022-08-22T07:04:35.531Z,81.52
2022-08-22T07:05:35.429Z,80.68
2022-08-22T07:06:36.368Z,80.78
2022-08-22T07:07:36.261Z,80.58
2022-08-22T07:08:39.026Z,79.77
2022-08-22T07:09:35.413Z,79.83
2022-08-22T07:10:35.592Z,81.35
2022-08-22T07:11:35.991Z,79.39
2022-08-22T07:12:35.971Z,78.79
2022-08-22T07:13:36.010Z,78.08
2022-08-22T07:14:36.671Z,77.98
2022-08-22T07:15:35.332Z,77.68
2022-08-22T07:16:35.297Z,77.48
2022-08-22T07:17:40.088Z,77.44
2022-08-22T07:18:37.263Z,77.84
2022-08-22T07:19:35.418Z,77.84
2022-08-22T07:20:35.298Z,77.24
2022-08-22T07:21:36.259Z,77.44
2022-08-22T07:22:35.711Z,77.00
2022-08-22T07:23:35.194Z,76.90
2022-08-22T07:24:38.167Z,76.80
2022-08-22T07:25:35.152Z,76.56
2022-08-22T07:26:35.108Z,76.26
2022-08-22T07:27:35.118Z,75.46
2022-08-22T07:28:37.266Z,75.05
2022-08-22T07:29:36.120Z,75.22
2022-08-22T07:30:35.132Z,75.42
2022-08-22T07:31:35.071Z,74.41
2022-08-22T07:32:35.110Z,74.28
2022-08-22T07:33:35.109Z,73.98
2022-08-22T07:34:39.664Z,74.18
2022-08-22T07:35:35.046Z,73.24
2022-08-22T07:36:34.998Z,73.24
2022-08-22T07:37:34.986Z,73.04
2022-08-22T07:38:38.499Z,73.44
2022-08-22T07:39:34.984Z,73.14
2022-08-22T07:40:37.006Z,72.64
2022-08-22T07:41:35.128Z,73.84
2022-08-22T07:42:37.171Z,73.61
2022-08-22T07:43:38.423Z,72.50
2022-08-22T07:44:34.979Z,72.90
2022-08-22T07:45:34.980Z,73.10
2022-08-22T07:46:34.853Z,73.10
2022-08-22T07:47:38.487Z,73.07
2022-08-22T07:48:38.287Z,72.37
2022-08-22T07:49:35.855Z,72.27
2022-08-22T07:50:34.942Z,71.63
2022-08-22T07:51:35.282Z,71.33
2022-08-22T07:52:34.765Z,71.83
2022-08-22T07:53:34.827Z,71.03
2022-08-22T07:54:34.797Z,72.09
2022-08-22T07:55:34.812Z,70.29
2022-08-22T07:56:35.734Z,69.69
2022-08-22T07:57:35.565Z,70.19
2022-08-22T07:58:35.985Z,70.39
2022-08-22T07:59:34.832Z,69.99
2022-08-22T08:00:35.005Z,69.35
2022-08-22T08:01:35.047Z,69.66
2022-08-22T08:02:34.667Z,69.35
2022-08-22T08:03:35.518Z,70.06
2022-08-22T08:04:39.504Z,70.86
2022-08-22T08:05:35.659Z,69.26
2022-08-22T08:06:34.643Z,68.73
2022-08-22T08:07:34.577Z,68.82
2022-08-22T08:08:40.605Z,68.42
2022-08-22T08:09:34.602Z,68.02
2022-08-22T08:10:37.316Z,68.42
2022-08-22T08:11:34.679Z,68.32
2022-08-22T08:12:34.795Z,68.42
2022-08-22T08:13:34.531Z,67.59
2022-08-22T08:14:34.505Z,67.16
2022-08-22T08:15:34.520Z,67.16
2022-08-22T08:16:34.468Z,66.25
2022-08-22T08:17:34.511Z,66.13
2022-08-22T08:18:36.443Z,64.89
2022-08-22T08:19:34.453Z,64.09
2022-08-22T08:20:34.424Z,64.69
2022-08-22T08:21:34.404Z,64.46
2022-08-22T08:22:35.157Z,64.06
2022-08-22T08:23:37.915Z,63.96
2022-08-22T08:24:40.195Z,63.86
2022-08-22T08:25:35.332Z,63.56
2022-08-22T08:26:34.413Z,63.56
2022-08-22T08:27:34.509Z,62.96
2022-08-22T08:28:34.757Z,62.76
2022-08-22T08:29:34.927Z,62.29
2022-08-22T08:30:34.296Z,62.89
2022-08-22T08:31:34.256Z,63.39
2022-08-22T08:32:34.310Z,63.59
2022-08-22T08:33:35.016Z,64.69
2022-08-22T08:34:35.446Z,63.26
2022-08-22T08:35:42.476Z,62.66
2022-08-22T08:36:42.036Z,63.26
2022-08-22T08:37:48.759Z,63.56
2022-08-22T08:38:34.288Z,64.06
2022-08-22T08:39:35.531Z,63.23
2022-08-22T08:40:34.199Z,63.63
2022-08-22T08:41:34.159Z,62.10
2022-08-22T08:42:34.127Z,61.60
2022-08-22T08:43:34.160Z,61.60
2022-08-22T08:44:34.290Z,61.00
2022-08-22T08:45:34.245Z,60.88
2022-08-22T08:46:34.110Z,60.28
2022-08-22T08:47:35.701Z,59.88
2022-08-22T08:48:35.722Z,60.25
2022-08-22T08:49:34.254Z,60.35
2022-08-22T08:50:34.043Z,60.75
2022-08-22T08:51:33.998Z,61.65
2022-08-22T08:52:34.284Z,58.92
2022-08-22T08:53:34.808Z,59.32
2022-08-22T08:54:34.030Z,59.32
2022-08-22T08:55:34.093Z,58.42
2022-08-22T08:56:33.943Z,58.92
2022-08-22T08:57:33.941Z,58.23
2022-08-22T08:58:33.994Z,58.53
2022-08-22T08:59:34.093Z,58.00
2022-08-22T09:00:33.897Z,57.50
2022-08-22T09:01:33.991Z,57.80
2022-08-22T09:02:35.792Z,57.20
2022-08-22T09:03:33.928Z,57.40
2022-08-22T09:04:33.851Z,58.29
2022-08-22T09:05:33.855Z,56.90
2022-08-22T09:06:33.832Z,56.38
2022-08-22T09:07:33.785Z,54.38
2022-08-22T09:08:34.891Z,54.19
2022-08-22T09:09:33.812Z,54.49
2022-08-22T09:10:33.803Z,54.58
2022-08-22T09:11:33.759Z,54.68
2022-08-22T09:12:33.810Z,54.26
2022-08-22T09:14:36.667Z,54.56
2022-08-22T09:15:37.277Z,53.44
2022-08-22T09:16:34.643Z,53.34
2022-08-22T09:17:33.859Z,53.44
2022-08-22T09:18:33.758Z,52.94
2022-08-22T09:19:35.155Z,52.24
2022-08-22T09:20:34.001Z,51.42
2022-08-22T09:21:33.642Z,51.05
2022-08-22T09:22:50.030Z,50.93
2022-08-22T09:23:34.592Z,49.36
2022-08-22T09:24:34.001Z,50.15
2022-08-22T09:25:38.580Z,49.76
2022-08-22T09:26:34.736Z,49.36
2022-08-22T09:27:33.716Z,49.43
2022-08-22T09:28:33.615Z,50.13
2022-08-22T09:29:34.408Z,47.34
2022-08-22T09:30:34.986Z,47.34
2022-08-22T09:31:47.997Z,48.24
2022-08-22T09:32:34.468Z,49.73
2022-08-22T09:33:33.468Z,50.93
2022-08-22T09:34:33.449Z,49.43
2022-08-22T09:35:33.495Z,49.43
2022-08-22T09:36:33.608Z,49.23
2022-08-22T09:37:33.515Z,49.53
2022-08-22T09:38:34.926Z,49.95
2022-08-22T09:39:33.412Z,49.85
2022-08-22T09:40:34.726Z,49.33
2022-08-22T09:41:33.356Z,49.33
2022-08-22T09:42:33.377Z,49.93
2022-08-22T09:43:33.627Z,50.82
2022-08-22T09:44:33.359Z,51.22
2022-08-22T09:45:35.774Z,50.33
2022-08-22T09:46:36.706Z,48.74
2022-08-22T09:47:33.281Z,49.04
2022-08-22T09:48:34.129Z,48.54
2022-08-22T09:49:33.389Z,48.44
2022-08-22T09:50:33.238Z,48.64
2022-08-22T09:51:34.354Z,49.04
2022-08-22T09:52:35.709Z,48.94
2022-08-22T09:53:33.178Z,48.64
2022-08-22T09:54:33.431Z,49.36
2022-08-22T09:55:35.172Z,49.55
2022-08-22T09:56:33.270Z,49.55
2022-08-22T09:57:33.144Z,49.76
2022-08-22T09:58:34.937Z,51.37
2022-08-22T09:59:33.568Z,50.45
2022-08-22T10:00:33.114Z,49.95
2022-08-22T10:01:33.355Z,50.55
2022-08-22T10:02:33.063Z,50.03
2022-08-22T10:03:33.035Z,50.90
2022-08-22T10:04:33.026Z,50.28
2022-08-22T10:05:40.675Z,48.69
2022-08-22T10:06:34.050Z,47.89
2022-08-22T10:07:33.022Z,48.29
2022-08-22T10:08:34.141Z,47.47
2022-08-22T10:09:33.013Z,47.67
2022-08-22T10:10:32.979Z,47.70
2022-08-22T10:11:32.959Z,47.97
2022-08-22T10:12:35.994Z,47.55
2022-08-22T10:13:32.908Z,47.35
2022-08-22T10:14:33.000Z,47.16
2022-08-22T10:15:32.965Z,47.43
2022-08-22T10:16:32.890Z,47.03
2022-08-22T10:17:32.997Z,47.53
2022-08-22T10:18:33.844Z,46.53
2022-08-22T10:19:32.959Z,46.14
2022-08-22T10:20:32.831Z,46.34
2022-08-22T10:21:32.827Z,45.42
2022-08-22T10:22:32.807Z,45.74
2022-08-22T10:23:33.004Z,46.73
2022-08-22T10:24:32.795Z,46.02
2022-08-22T10:25:32.743Z,46.12
2022-08-22T10:26:37.938Z,46.31
2022-08-22T10:27:33.999Z,46.12
2022-08-22T10:28:34.175Z,46.12
2022-08-22T10:29:32.778Z,45.72
2022-08-22T10:30:32.855Z,45.42
2022-08-22T10:31:33.396Z,45.92
2022-08-22T10:32:32.647Z,45.54
2022-08-22T10:33:32.999Z,45.54
2022-08-22T10:34:32.678Z,46.31
2022-08-22T10:35:33.901Z,45.23
2022-08-22T10:36:32.630Z,45.52
2022-08-22T10:37:32.602Z,45.12
2022-08-22T10:38:32.690Z,44.73
2022-08-22T10:39:32.697Z,45.15
2022-08-22T10:40:32.598Z,44.53
2022-08-22T10:41:32.577Z,45.52
2022-08-22T10:42:35.142Z,45.72
2022-08-22T10:43:32.535Z,44.01
2022-08-22T10:44:32.504Z,43.91
2022-08-22T10:45:36.160Z,45.30
2022-08-22T10:46:32.571Z,43.70
2022-08-22T10:47:32.522Z,44.09
2022-08-22T10:48:32.659Z,44.68
2022-08-22T10:49:32.463Z,44.29
2022-08-22T10:50:32.443Z,44.39
2022-08-22T10:51:32.645Z,44.86
2022-08-22T10:52:32.640Z,43.18
2022-08-22T10:53:32.718Z,42.78
2022-08-22T10:54:32.425Z,43.18
2022-08-22T10:55:34.320Z,43.20
2022-08-22T10:56:32.404Z,44.01
2022-08-22T10:57:32.675Z,44.71
2022-08-22T10:58:33.548Z,43.99
2022-08-22T10:59:32.365Z,44.17
2022-08-22T11:00:32.373Z,42.38
2022-08-22T11:01:41.584Z,41.28
2022-08-22T11:02:33.307Z,40.96
2022-08-22T11:03:32.492Z,40.45
2022-08-22T11:04:32.278Z,39.26
2022-08-22T11:05:32.811Z,40.26
2022-08-22T11:06:32.319Z,40.66
2022-08-22T11:07:32.280Z,39.67
2022-08-22T11:08:33.114Z,40.29
2022-08-22T11:09:36.257Z,39.89
2022-08-22T11:10:32.236Z,40.41
2022-08-22T11:11:32.835Z,40.90
2022-08-22T11:12:35.044Z,40.80
2022-08-22T11:13:32.224Z,40.11
2022-08-22T11:14:32.137Z,40.60
2022-08-22T11:15:35.084Z,40.12
2022-08-22T11:16:36.567Z,40.33
2022-08-22T11:17:36.743Z,40.03
2022-08-22T11:18:33.158Z,40.01
2022-08-22T11:19:34.057Z,40.01
2022-08-22T11:20:32.107Z,40.50
2022-08-22T11:21:32.286Z,39.59
2022-08-22T11:22:32.047Z,39.59
2022-08-22T11:23:32.225Z,39.99
2022-08-22T11:24:35.604Z,40.86
2022-08-22T11:25:38.705Z,40.07
2022-08-22T11:26:38.341Z,39.67
2022-08-22T11:27:38.018Z,39.48
2022-08-22T11:28:33.027Z,40.86
2022-08-22T11:29:31.948Z,40.47
2022-08-22T11:30:32.159Z,40.37
2022-08-22T11:31:36.481Z,40.07
2022-08-22T11:32:31.944Z,41.16
2022-08-22T11:33:33.937Z,40.86
2022-08-22T11:34:32.981Z,39.95
2022-08-22T11:35:31.896Z,40.05
2022-08-22T11:36:31.838Z,38.45
2022-08-22T11:37:42.423Z,39.34
2022-08-22T11:38:33.811Z,38.45
2022-08-22T11:39:32.691Z,38.45
2022-08-22T11:40:31.905Z,38.55
2022-08-22T11:43:52.032Z,38.51
2022-08-22T11:44:52.164Z,37.62
2022-08-22T11:45:51.995Z,37.72
2022-08-22T11:46:53.007Z,36.93
2022-08-22T11:47:52.818Z,37.92
2022-08-22T11:48:52.051Z,38.12
2022-08-22T11:49:52.039Z,37.72
2022-08-22T11:50:52.970Z,36.61
2022-08-22T11:51:51.951Z,35.04
2022-08-22T11:52:52.105Z,36.02
2022-08-22T11:53:51.881Z,35.93
2022-08-22T11:54:51.869Z,35.83
2022-08-22T11:55:51.835Z,36.70
2022-08-22T11:56:51.832Z,35.40
2022-08-22T11:57:51.899Z,34.61
2022-08-22T11:58:54.040Z,34.31
2022-08-22T11:59:51.804Z,35.69
2022-08-22T12:00:51.805Z,34.71
2022-08-22T12:01:51.885Z,35.69
2022-08-22T12:02:52.995Z,35.18
2022-08-22T12:03:58.292Z,34.91
2022-08-22T12:04:52.744Z,34.59
2022-08-22T12:05:51.744Z,34.00
2022-08-22T12:06:51.986Z,34.39
2022-08-22T12:07:52.042Z,34.58
2022-08-22T12:08:51.669Z,34.08
2022-08-22T12:09:51.706Z,34.77
2022-08-22T12:10:52.747Z,34.18
2022-08-22T12:11:52.009Z,33.97
2022-08-22T12:12:52.723Z,34.38
2022-08-22T12:13:52.465Z,33.69
2022-08-22T12:14:52.751Z,34.28
2022-08-22T12:15:53.791Z,34.58
2022-08-22T12:16:52.046Z,33.80
2022-08-22T12:18:01.285Z,34.99
2022-08-22T12:18:53.524Z,34.89
2022-08-22T12:20:14.756Z,34.67
2022-08-22T12:20:52.691Z,34.06
2022-08-22T12:21:51.562Z,33.77
2022-08-22T12:22:52.622Z,34.36
2022-08-22T12:23:52.228Z,34.36
2022-08-22T12:24:52.468Z,34.34
2022-08-22T12:25:51.494Z,34.15
2022-08-22T12:26:51.486Z,34.94
2022-08-22T12:27:55.210Z,34.84
2022-08-22T12:28:51.632Z,34.64
2022-08-22T12:29:51.543Z,33.86
2022-08-22T12:30:54.619Z,33.86
2022-08-22T12:31:51.427Z,34.05
2022-08-22T12:32:51.428Z,34.34
2022-08-22T12:33:51.360Z,34.54
2022-08-22T12:34:51.418Z,34.27
2022-08-22T12:35:51.408Z,34.66
2022-08-22T12:36:51.349Z,33.67
2022-08-22T12:37:52.847Z,34.36
2022-08-22T12:38:51.527Z,34.27
2022-08-22T12:39:51.294Z,34.46
2022-08-22T12:40:51.258Z,34.56
2022-08-22T12:41:52.713Z,33.87
2022-08-22T12:42:51.283Z,34.36
2022-08-22T12:43:51.312Z,34.38
2022-08-22T12:44:51.231Z,34.49
2022-08-22T12:45:51.194Z,35.28
2022-08-22T12:46:51.254Z,35.07
2022-08-22T12:47:51.193Z,34.67
2022-08-22T12:48:51.232Z,35.44
2022-08-22T12:49:52.407Z,34.17